Time;durP1;ratioP1;P1;durP2;ratioP2;P2;SDS_P1;SDS_P2;PMS_P1;PMS_P2;Temp;Humidity;BMP_temperature;BMP_pressure;BME280_temperature;BME280_humidity;BME280_pressure;Samples;Min_cycle;Max_cycle;Signal;HPM_P1;HPM_P2
2023/04/07 00:00:17;;;;;;;;;;;3.50;71.00;;;;;;5103527;27;89288;-40
2023/04/07 00:02:42;;;;;;;;;;;3.50;71.00;;;;;;5103403;27;87950;-41
2023/04/07 00:05:08;;;;;;;;;;;3.50;71.10;;;;;;5106523;27;89354;-40
2023/04/07 00:07:33;;;;;;;;;;;3.50;71.10;;;;;;5103955;27;87070;-40
2023/04/07 00:09:59;;;;;;;;;;;3.50;71.10;;;;;;5103604;27;88918;-40
2023/04/07 00:12:24;;;;;;;;;;;3.50;71.10;;;;;;5103719;27;87983;-41
2023/04/07 00:14:50;;;;;;;;;;;3.50;71.10;;;;;;5103040;27;87134;-40
2023/04/07 00:17:15;;;;;;;;;;;3.50;71.00;;;;;;5102807;27;87463;-40
2023/04/07 00:19:42;;;;;;;;;;;3.50;71.00;;;;;;5103728;27;88845;-40
2023/04/07 00:22:08;;;;;;;;;;;3.50;71.10;;;;;;5104087;27;86995;-40
2023/04/07 00:24:33;;;;;;;;;;;3.40;71.00;;;;;;5102159;27;88757;-40
2023/04/07 00:26:59;;;;;;;;;;;3.50;71.00;;;;;;5105340;27;90531;-40
2023/04/07 00:29:25;;;;;;;;;;;3.50;71.00;;;;;;5103679;27;89998;-40
2023/04/07 00:31:50;;;;;;;;;;;3.50;71.00;;;;;;5102960;27;89553;-40
2023/04/07 00:34:16;;;;;;;;;;;3.40;70.90;;;;;;5103310;27;87136;-40
2023/04/07 00:36:41;;;;;;;;;;;3.40;71.00;;;;;;5103334;27;87595;-40
2023/04/07 00:39:07;;;;;;;;;;;3.40;71.00;;;;;;5102569;27;89413;-40
2023/04/07 00:41:33;;;;;;;;;;;3.40;71.10;;;;;;5099154;27;86978;-40
2023/04/07 00:43:59;;;;;;;;;;;3.40;71.10;;;;;;5103734;27;88904;-40
2023/04/07 00:46:25;;;;;;;;;;;3.40;71.10;;;;;;5102854;27;89365;-40
2023/04/07 00:48:50;;;;;;;;;;;3.40;71.10;;;;;;5106029;27;87144;-40
2023/04/07 00:51:17;;;;;;;;;;;3.40;71.10;;;;;;5102113;27;88978;-40
2023/04/07 00:53:42;;;;;;;;;;;3.50;71.10;;;;;;5103328;27;87632;-40
2023/04/07 00:56:08;;;;;;;;;;;3.40;71.00;;;;;;5099383;27;87103;-40
2023/04/07 00:58:33;;;;;;;;;;;3.40;71.00;;;;;;5102583;27;87512;-40
2023/04/07 01:01:05;;;;;;;;;;;3.40;71.00;;;;;;5103177;27;86989;-40
2023/04/07 01:03:45;;;;;;;;;;;3.40;71.00;;;;;;5102803;27;87919;-40
2023/04/07 01:06:13;;;;;;;;;;;3.40;71.10;;;;;;5095797;27;89277;-40
2023/04/07 01:08:48;;;;;;;;;;;3.40;71.00;;;;;;5103284;27;86392;-40
2023/04/07 01:11:27;;;;;;;;;;;3.40;71.00;;;;;;5101719;27;87868;-40
2023/04/07 01:13:53;;;;;;;;;;;3.40;71.10;;;;;;5102069;27;87089;-40
2023/04/07 01:16:24;;;;;;;;;;;3.40;71.10;;;;;;5101977;27;88988;-40
2023/04/07 01:18:51;;;;;;;;;;;3.40;71.10;;;;;;5099120;27;87228;-40
2023/04/07 01:21:17;;;;;;;;;;;3.40;71.10;;;;;;5102754;27;87071;-40
2023/04/07 01:24:01;;;;;;;;;;;3.40;71.00;;;;;;5102854;27;88995;-40
2023/04/07 01:26:27;;;;;;;;;;;3.40;71.10;;;;;;5099665;27;88414;-40
2023/04/07 01:28:55;;;;;;;;;;;3.40;71.10;;;;;;5104367;27;87185;-40
2023/04/07 01:31:21;;;;;;;;;;;3.40;71.00;;;;;;5109191;27;88207;-40
2023/04/07 01:33:48;;;;;;;;;;;3.40;71.00;;;;;;5112830;27;87301;-40
2023/04/07 01:36:14;;;;;;;;;;;3.40;71.00;;;;;;5108103;27;89044;-40
2023/04/07 01:38:40;;;;;;;;;;;3.40;71.00;;;;;;5108763;27;89390;-40
2023/04/07 01:41:07;;;;;;;;;;;3.40;71.00;;;;;;5108576;27;88394;-40
2023/04/07 01:43:33;;;;;;;;;;;3.40;71.00;;;;;;5109212;27;88288;-40
2023/04/07 01:45:59;;;;;;;;;;;3.30;71.10;;;;;;5108808;27;89391;-40
2023/04/07 01:48:25;;;;;;;;;;;3.30;71.00;;;;;;5109311;27;87232;-40
2023/04/07 01:50:50;;;;;;;;;;;3.30;71.00;;;;;;5108951;27;88543;-40
2023/04/07 01:53:16;;;;;;;;;;;3.40;71.00;;;;;;5111658;27;89442;-40
2023/04/07 01:55:42;;;;;;;;;;;3.30;71.00;;;;;;5109271;27;88634;-40
2023/04/07 01:58:08;;;;;;;;;;;3.30;71.00;;;;;;5109328;27;88552;-40
2023/04/07 02:00:33;;;;;;;;;;;3.30;71.00;;;;;;5104840;27;87268;-40
2023/04/07 02:03:04;;;;;;;;;;;3.30;71.10;;;;;;5109307;27;87293;-40
2023/04/07 02:05:31;;;;;;;;;;;3.30;71.10;;;;;;5108190;27;90338;-40
2023/04/07 02:08:01;;;;;;;;;;;3.30;71.00;;;;;;5108784;27;87087;-40
2023/04/07 02:10:28;;;;;;;;;;;3.30;71.00;;;;;;5109449;27;87023;-40
2023/04/07 02:12:54;;;;;;;;;;;3.30;71.00;;;;;;5108522;27;89032;-40
2023/04/07 02:15:20;;;;;;;;;;;3.30;70.90;;;;;;5111444;27;87166;-40
2023/04/07 02:17:48;;;;;;;;;;;3.30;71.00;;;;;;5108483;27;89170;-40
2023/04/07 02:20:15;;;;;;;;;;;3.30;71.00;;;;;;5108817;27;87012;-40
2023/04/07 02:22:41;;;;;;;;;;;3.30;71.10;;;;;;5109348;27;88686;-40
2023/04/07 02:25:23;;;;;;;;;;;3.30;71.00;;;;;;5108209;27;89149;-40
2023/04/07 02:27:48;;;;;;;;;;;3.30;71.10;;;;;;5108653;27;87143;-40
2023/04/07 02:30:14;;;;;;;;;;;3.30;71.00;;;;;;5108074;27;88662;-40
2023/04/07 02:32:40;;;;;;;;;;;3.30;71.10;;;;;;5108283;27;89283;-40
2023/04/07 02:35:05;;;;;;;;;;;3.30;71.10;;;;;;5109270;27;87094;-40
2023/04/07 02:37:31;;;;;;;;;;;3.30;71.10;;;;;;5111059;27;88888;-40
2023/04/07 02:39:56;;;;;;;;;;;3.30;71.10;;;;;;5107772;27;87142;-40
2023/04/07 02:42:22;;;;;;;;;;;3.30;71.10;;;;;;5104452;27;87367;-40
2023/04/07 02:44:47;;;;;;;;;;;3.30;71.10;;;;;;5105070;27;87881;-40
2023/04/07 02:47:13;;;;;;;;;;;3.30;71.00;;;;;;5105660;27;86393;-40
2023/04/07 02:49:38;;;;;;;;;;;3.30;71.10;;;;;;5105265;27;87321;-40
2023/04/07 02:52:04;;;;;;;;;;;3.30;71.00;;;;;;5104574;27;87952;-40
2023/04/07 02:54:29;;;;;;;;;;;3.30;71.00;;;;;;5104414;27;87983;-40
2023/04/07 02:56:56;;;;;;;;;;;3.30;71.10;;;;;;5104780;27;89564;-40
2023/04/07 02:59:21;;;;;;;;;;;3.30;71.10;;;;;;5107561;27;89090;-40
2023/04/07 03:01:47;;;;;;;;;;;3.30;71.00;;;;;;5105624;27;88376;-40
2023/04/07 03:04:12;;;;;;;;;;;3.30;71.10;;;;;;5104687;27;88662;-40
2023/04/07 03:06:38;;;;;;;;;;;3.20;71.00;;;;;;5105044;27;87016;-40
2023/04/07 03:09:03;;;;;;;;;;;3.20;71.00;;;;;;5104861;27;87695;-40
2023/04/07 03:11:29;;;;;;;;;;;3.20;70.90;;;;;;5104867;27;88711;-40
2023/04/07 03:13:54;;;;;;;;;;;3.20;71.00;;;;;;5104337;27;87349;-40
2023/04/07 03:16:20;;;;;;;;;;;3.20;71.10;;;;;;5104760;27;89031;-40
2023/04/07 03:18:45;;;;;;;;;;;3.20;71.10;;;;;;5103388;27;91417;-40
2023/04/07 03:21:11;;;;;;;;;;;3.20;71.00;;;;;;5107820;27;87062;-40
2023/04/07 03:23:37;;;;;;;;;;;3.20;71.00;;;;;;5104434;27;89420;-40
2023/04/07 03:26:02;;;;;;;;;;;3.20;71.00;;;;;;5104465;27;87464;-40
2023/04/07 03:28:28;;;;;;;;;;;3.20;71.00;;;;;;5104324;27;87805;-40
2023/04/07 03:30:53;;;;;;;;;;;3.20;71.00;;;;;;5104273;27;88154;-40
2023/04/07 03:33:19;;;;;;;;;;;3.20;71.10;;;;;;5104279;27;87189;-40
2023/04/07 03:35:45;;;;;;;;;;;3.20;71.20;;;;;;5104469;27;87942;-40
2023/04/07 03:38:10;;;;;;;;;;;3.20;70.90;;;;;;5104007;27;88181;-40
2023/04/07 03:40:36;;;;;;;;;;;3.20;70.90;;;;;;5104278;27;87445;-40
2023/04/07 03:43:02;;;;;;;;;;;3.20;71.00;;;;;;5105850;27;88775;-40
2023/04/07 03:45:27;;;;;;;;;;;3.20;71.10;;;;;;5104181;27;87094;-40
2023/04/07 03:47:53;;;;;;;;;;;3.20;71.10;;;;;;5104211;27;87869;-40
2023/04/07 03:50:18;;;;;;;;;;;3.20;71.00;;;;;;5103735;27;89479;-40
2023/04/07 03:52:44;;;;;;;;;;;3.20;70.90;;;;;;5103980;27;87671;-40
2023/04/07 03:55:10;;;;;;;;;;;3.20;71.00;;;;;;5104351;27;87568;-40
2023/04/07 03:57:35;;;;;;;;;;;3.10;71.50;;;;;;5103585;27;88239;-40
2023/04/07 04:00:01;;;;;;;;;;;3.20;71.00;;;;;;5104642;27;86422;-40
2023/04/07 04:02:27;;;;;;;;;;;3.10;71.00;;;;;;5106808;27;88138;-40
2023/04/07 04:04:52;;;;;;;;;;;3.20;71.00;;;;;;5104163;27;87410;-40
2023/04/07 04:07:18;;;;;;;;;;;3.20;71.00;;;;;;5103753;27;88449;-40
2023/04/07 04:09:43;;;;;;;;;;;3.10;70.90;;;;;;5104148;27;87115;-40
2023/04/07 04:12:09;;;;;;;;;;;3.20;71.00;;;;;;5103736;27;87541;-40
2023/04/07 04:14:34;;;;;;;;;;;3.10;70.90;;;;;;5103136;27;87014;-40
2023/04/07 04:17:00;;;;;;;;;;;3.20;71.00;;;;;;5103106;27;89136;-40
2023/04/07 04:19:25;;;;;;;;;;;3.10;71.00;;;;;;5103945;27;87095;-40
2023/04/07 04:21:51;;;;;;;;;;;3.10;71.00;;;;;;5103916;27;88795;-40
2023/04/07 04:24:16;;;;;;;;;;;3.10;70.90;;;;;;5107223;27;87343;-40
2023/04/07 04:26:42;;;;;;;;;;;3.20;71.00;;;;;;5104037;27;88354;-40
2023/04/07 04:29:07;;;;;;;;;;;3.10;71.00;;;;;;5102965;27;89459;-40
2023/04/07 04:31:33;;;;;;;;;;;3.10;70.90;;;;;;5102599;27;88076;-40
2023/04/07 04:33:58;;;;;;;;;;;3.10;71.10;;;;;;5104152;27;88289;-40
2023/04/07 04:36:25;;;;;;;;;;;3.10;71.00;;;;;;5103502;27;87970;-40
2023/04/07 04:38:50;;;;;;;;;;;3.10;71.00;;;;;;5103112;27;86986;-40
2023/04/07 04:41:16;;;;;;;;;;;3.10;71.00;;;;;;5103180;27;88809;-40
2023/04/07 04:43:41;;;;;;;;;;;3.10;71.00;;;;;;5102818;27;87149;-40
2023/04/07 04:46:07;;;;;;;;;;;3.10;70.90;;;;;;5106520;27;87586;-40
2023/04/07 04:48:32;;;;;;;;;;;3.10;71.00;;;;;;5103363;27;88752;-40
2023/04/07 04:50:57;;;;;;;;;;;3.10;71.00;;;;;;5102950;27;87269;-40
2023/04/07 04:53:23;;;;;;;;;;;3.10;70.90;;;;;;5103453;27;88587;-40
2023/04/07 04:55:50;;;;;;;;;;;3.10;71.00;;;;;;5102124;27;89186;-40
2023/04/07 04:58:17;;;;;;;;;;;3.10;71.00;;;;;;5103326;27;87464;-40
2023/04/07 05:00:42;;;;;;;;;;;3.10;71.10;;;;;;5103279;27;87724;-40
2023/04/07 05:03:08;;;;;;;;;;;3.10;71.10;;;;;;5102669;27;89451;-40
2023/04/07 05:05:33;;;;;;;;;;;3.10;71.10;;;;;;5102911;27;87107;-40
2023/04/07 05:07:59;;;;;;;;;;;3.10;71.00;;;;;;5105912;27;89174;-40
2023/04/07 05:10:24;;;;;;;;;;;3.10;71.00;;;;;;5103240;27;87109;-40
2023/04/07 05:12:50;;;;;;;;;;;3.10;71.00;;;;;;5103475;27;88383;-40
2023/04/07 05:15:15;;;;;;;;;;;3.10;71.00;;;;;;5102434;27;89547;-40
2023/04/07 05:17:41;;;;;;;;;;;3.10;71.00;;;;;;5103016;27;87573;-40
2023/04/07 05:20:08;;;;;;;;;;;3.00;71.00;;;;;;5102782;27;88027;-40
2023/04/07 05:22:33;;;;;;;;;;;3.10;71.00;;;;;;5098787;27;89461;-40
2023/04/07 05:24:59;;;;;;;;;;;3.10;71.00;;;;;;5103108;27;87576;-40
2023/04/07 05:27:25;;;;;;;;;;;3.10;71.00;;;;;;5102752;27;87781;-40
2023/04/07 05:29:50;;;;;;;;;;;3.10;70.90;;;;;;5105269;27;88305;-40
2023/04/07 05:32:17;;;;;;;;;;;3.10;70.90;;;;;;5102869;27;88666;-40
2023/04/07 05:34:43;;;;;;;;;;;3.10;71.00;;;;;;5102269;27;89374;-40
2023/04/07 05:37:08;;;;;;;;;;;3.10;71.00;;;;;;5103024;27;86469;-40
2023/04/07 05:39:34;;;;;;;;;;;3.10;71.00;;;;;;5102569;27;88096;-40
2023/04/07 05:42:01;;;;;;;;;;;3.10;70.90;;;;;;5101772;27;89410;-40
2023/04/07 05:44:26;;;;;;;;;;;3.10;70.90;;;;;;5101639;27;87956;-40
2023/04/07 05:46:52;;;;;;;;;;;3.10;70.80;;;;;;5102572;27;88977;-40
2023/04/07 05:49:17;;;;;;;;;;;3.10;70.90;;;;;;5101965;27;90176;-40
2023/04/07 05:51:43;;;;;;;;;;;3.10;70.90;;;;;;5104770;27;87210;-40
2023/04/07 05:54:08;;;;;;;;;;;3.10;70.80;;;;;;5102046;27;89065;-40
2023/04/07 05:56:34;;;;;;;;;;;3.10;71.00;;;;;;5102752;27;87157;-40
2023/04/07 05:59:00;;;;;;;;;;;3.10;70.90;;;;;;5102601;27;87741;-40
2023/04/07 06:01:26;;;;;;;;;;;3.10;70.90;;;;;;5102450;27;88552;-40
2023/04/07 06:03:52;;;;;;;;;;;3.10;71.00;;;;;;5102243;27;87415;-40
2023/04/07 06:06:17;;;;;;;;;;;3.10;70.90;;;;;;5102273;27;87323;-40
2023/04/07 06:08:43;;;;;;;;;;;3.10;70.90;;;;;;5101059;27;90540;-40
2023/04/07 06:11:08;;;;;;;;;;;3.10;70.90;;;;;;5105047;27;87060;-40
2023/04/07 06:13:34;;;;;;;;;;;3.10;70.80;;;;;;5101785;27;88930;-40
2023/04/07 06:15:59;;;;;;;;;;;3.10;70.70;;;;;;5102816;27;87361;-40
2023/04/07 06:18:25;;;;;;;;;;;3.10;70.80;;;;;;5105507;27;88840;-40
2023/04/07 06:20:50;;;;;;;;;;;3.10;71.00;;;;;;5105380;27;89193;-40
2023/04/07 06:23:16;;;;;;;;;;;3.10;70.90;;;;;;5105900;27;87176;-40
2023/04/07 06:25:41;;;;;;;;;;;3.10;70.80;;;;;;5106319;27;88843;-40
2023/04/07 06:28:07;;;;;;;;;;;3.10;70.80;;;;;;5105430;27;88187;-40
2023/04/07 06:30:33;;;;;;;;;;;3.10;70.90;;;;;;5105617;27;87112;-40
2023/04/07 06:32:58;;;;;;;;;;;3.10;70.90;;;;;;5106439;27;88870;-40
2023/04/07 06:35:25;;;;;;;;;;;3.10;70.80;;;;;;5105360;27;87179;-40
2023/04/07 06:37:51;;;;;;;;;;;3.10;70.80;;;;;;5105333;27;87715;-40
2023/04/07 06:40:16;;;;;;;;;;;3.10;70.80;;;;;;5105696;27;88124;-40
2023/04/07 06:42:42;;;;;;;;;;;3.20;70.90;;;;;;5105849;27;87067;-41
2023/04/07 06:45:08;;;;;;;;;;;3.10;70.80;;;;;;5105587;27;87312;-40
2023/04/07 06:47:33;;;;;;;;;;;3.20;70.80;;;;;;5105324;27;89738;-40
2023/04/07 06:49:59;;;;;;;;;;;3.20;70.80;;;;;;5105416;27;86493;-40
2023/04/07 06:52:24;;;;;;;;;;;3.20;70.90;;;;;;5105492;27;86866;-40
2023/04/07 06:54:50;;;;;;;;;;;3.20;70.90;;;;;;5107887;27;89262;-40
2023/04/07 06:57:16;;;;;;;;;;;3.20;70.90;;;;;;5104636;27;88800;-40
2023/04/07 06:59:41;;;;;;;;;;;3.20;70.90;;;;;;5104895;27;88307;-40
2023/04/07 07:02:07;;;;;;;;;;;3.20;70.70;;;;;;5104939;27;87182;-40
2023/04/07 07:04:35;;;;;;;;;;;3.20;70.80;;;;;;5104983;27;87421;-40
2023/04/07 07:07:02;;;;;;;;;;;3.20;70.70;;;;;;5104125;27;89142;-40
2023/04/07 07:09:27;;;;;;;;;;;3.20;70.80;;;;;;5104751;27;87999;-40
2023/04/07 07:11:53;;;;;;;;;;;3.20;70.90;;;;;;5104758;27;87908;-40
2023/04/07 07:14:18;;;;;;;;;;;3.20;70.80;;;;;;5104331;27;86622;-40
2023/04/07 07:16:44;;;;;;;;;;;3.20;70.70;;;;;;5107715;27;87173;-40
2023/04/07 07:19:11;;;;;;;;;;;3.20;70.80;;;;;;5104152;27;89100;-40
2023/04/07 07:21:36;;;;;;;;;;;3.20;70.80;;;;;;5104447;27;88344;-40
2023/04/07 07:24:02;;;;;;;;;;;3.20;70.80;;;;;;5104808;27;89667;-40
2023/04/07 07:26:27;;;;;;;;;;;3.20;70.90;;;;;;5104241;27;88708;-40
2023/04/07 07:28:53;;;;;;;;;;;3.20;71.00;;;;;;5104807;27;87341;-40
2023/04/07 07:31:18;;;;;;;;;;;3.20;70.90;;;;;;5105056;27;88740;-40
2023/04/07 07:33:44;;;;;;;;;;;3.20;71.00;;;;;;5104596;27;89503;-40
2023/04/07 07:36:10;;;;;;;;;;;3.20;71.20;;;;;;5104539;27;87073;-40
2023/04/07 07:38:36;;;;;;;;;;;3.20;71.00;;;;;;5103628;27;88917;-40
2023/04/07 07:41:01;;;;;;;;;;;3.20;71.10;;;;;;5104508;27;87116;-40
2023/04/07 07:43:27;;;;;;;;;;;3.20;71.10;;;;;;5104620;27;87282;-40
2023/04/07 07:45:53;;;;;;;;;;;3.20;70.90;;;;;;5103411;27;90249;-41
2023/04/07 07:48:18;;;;;;;;;;;3.30;71.10;;;;;;5104427;27;86970;-40
2023/04/07 07:50:44;;;;;;;;;;;3.20;71.10;;;;;;5104469;27;88668;-40
2023/04/07 07:53:10;;;;;;;;;;;3.20;71.10;;;;;;5104048;27;89108;-40
2023/04/07 07:55:35;;;;;;;;;;;3.10;71.40;;;;;;5104283;27;87542;-40
2023/04/07 07:58:01;;;;;;;;;;;3.10;71.60;;;;;;5106960;27;88703;-41
2023/04/07 08:00:27;;;;;;;;;;;3.20;71.60;;;;;;5104589;27;87163;-40
2023/04/07 08:02:53;;;;;;;;;;;3.10;71.60;;;;;;5104487;27;88640;-40
2023/04/07 08:05:18;;;;;;;;;;;3.10;72.00;;;;;;5103497;27;88444;-40
2023/04/07 08:07:45;;;;;;;;;;;3.00;72.10;;;;;;5104017;27;87677;-40
2023/04/07 08:10:11;;;;;;;;;;;3.00;72.30;;;;;;5103442;27;88079;-40
2023/04/07 08:12:37;;;;;;;;;;;3.00;72.50;;;;;;5103169;27;88041;-41
2023/04/07 08:15:02;;;;;;;;;;;3.00;72.60;;;;;;5103204;27;87187;-40
2023/04/07 08:17:28;;;;;;;;;;;3.00;72.70;;;;;;5103925;27;88731;-40
2023/04/07 08:19:53;;;;;;;;;;;3.00;73.20;;;;;;5106693;27;88173;-40
2023/04/07 08:22:19;;;;;;;;;;;3.00;72.70;;;;;;5103751;27;89390;-40
2023/04/07 08:24:46;;;;;;;;;;;2.90;72.70;;;;;;5103257;27;89580;-40
2023/04/07 08:27:12;;;;;;;;;;;3.00;72.80;;;;;;5104186;27;86401;-40
2023/04/07 08:29:37;;;;;;;;;;;3.00;72.80;;;;;;5103957;27;87113;-40
2023/04/07 08:32:03;;;;;;;;;;;3.00;72.80;;;;;;5103459;27;88612;-40
2023/04/07 08:34:28;;;;;;;;;;;3.00;72.80;;;;;;5103118;27;88058;-41
2023/04/07 08:36:54;;;;;;;;;;;3.00;72.90;;;;;;5103363;27;89584;-41
2023/04/07 08:39:20;;;;;;;;;;;3.00;72.90;;;;;;5101924;27;88288;-40
2023/04/07 08:41:46;;;;;;;;;;;3.00;72.90;;;;;;5106416;27;87517;-40
2023/04/07 08:44:12;;;;;;;;;;;3.00;72.80;;;;;;5102880;27;89176;-40
2023/04/07 08:46:39;;;;;;;;;;;3.00;72.80;;;;;;5103057;27;87110;-41
2023/04/07 08:49:07;;;;;;;;;;;3.10;72.70;;;;;;5103038;27;88859;-40
2023/04/07 08:51:33;;;;;;;;;;;3.10;72.70;;;;;;5103355;27;88799;-41
2023/04/07 08:53:59;;;;;;;;;;;3.10;72.70;;;;;;5103515;27;87368;-40
2023/04/07 08:56:24;;;;;;;;;;;3.10;72.70;;;;;;5103497;27;87274;-41
2023/04/07 08:58:51;;;;;;;;;;;3.10;72.70;;;;;;5102086;27;89085;-41
2023/04/07 09:01:17;;;;;;;;;;;3.10;72.70;;;;;;5103076;27;87128;-41
2023/04/07 09:03:46;;;;;;;;;;;3.10;72.80;;;;;;5105973;27;87263;-40
2023/04/07 09:06:12;;;;;;;;;;;3.10;72.80;;;;;;5098850;27;87640;-41
2023/04/07 09:08:37;;;;;;;;;;;3.10;72.80;;;;;;5102562;27;88723;-41
2023/04/07 09:11:03;;;;;;;;;;;3.10;72.70;;;;;;5102139;27;88374;-41
2023/04/07 09:13:30;;;;;;;;;;;3.20;72.70;;;;;;5102158;27;86984;-40
2023/04/07 09:15:56;;;;;;;;;;;3.10;72.60;;;;;;5103381;27;88660;-40
2023/04/07 09:18:21;;;;;;;;;;;3.10;72.80;;;;;;5102137;27;89491;-41
2023/04/07 09:21:03;;;;;;;;;;;3.20;72.90;;;;;;5102871;27;87287;-41
2023/04/07 09:23:33;;;;;;;;;;;3.20;72.90;;;;;;5101050;27;90780;-40
2023/04/07 09:26:16;;;;;;;;;;;3.20;73.00;;;;;;5101755;27;89195;-41
2023/04/07 09:28:41;;;;;;;;;;;3.20;73.00;;;;;;5102461;27;97494;-41
2023/04/07 09:31:07;;;;;;;;;;;3.20;73.00;;;;;;5102174;27;88461;-40
2023/04/07 09:33:33;;;;;;;;;;;3.20;73.10;;;;;;5100854;27;87078;-40
2023/04/07 09:35:58;;;;;;;;;;;3.20;73.10;;;;;;5100128;27;88971;-40
2023/04/07 09:38:31;;;;;;;;;;;3.20;73.10;;;;;;5101996;27;89468;-41
2023/04/07 09:41:07;;;;;;;;;;;3.20;73.20;;;;;;5103196;27;86315;-40
2023/04/07 09:43:34;;;;;;;;;;;3.20;73.10;;;;;;5102869;27;87494;-40
2023/04/07 09:46:28;;;;;;;;;;;3.20;73.20;;;;;;5102324;27;89476;-40
2023/04/07 09:49:01;;;;;;;;;;;3.20;73.20;;;;;;5099263;27;88057;-41
2023/04/07 09:51:27;;;;;;;;;;;3.30;73.30;;;;;;5102145;27;87427;-40
2023/04/07 09:53:52;;;;;;;;;;;3.30;73.30;;;;;;5106055;27;87852;-40
2023/04/07 09:56:21;;;;;;;;;;;3.30;73.30;;;;;;5106080;27;88859;-40
2023/04/07 09:58:47;;;;;;;;;;;3.30;73.30;;;;;;5105252;27;89209;-41
2023/04/07 10:01:15;;;;;;;;;;;3.30;73.30;;;;;;5101976;27;87122;-40
2023/04/07 10:03:40;;;;;;;;;;;3.30;73.30;;;;;;5105405;27;88691;-41
2023/04/07 10:06:06;;;;;;;;;;;3.30;73.10;;;;;;5105905;27;88482;-41
2023/04/07 10:08:34;;;;;;;;;;;3.30;73.20;;;;;;5108548;27;87064;-40
2023/04/07 10:11:03;;;;;;;;;;;3.30;73.20;;;;;;5105014;27;89255;-40
2023/04/07 10:13:29;;;;;;;;;;;3.40;73.20;;;;;;5100232;27;90740;-41
2023/04/07 10:15:55;;;;;;;;;;;3.40;73.20;;;;;;5105996;27;88660;-41
2023/04/07 10:18:21;;;;;;;;;;;3.40;73.00;;;;;;5103107;27;89780;-40
2023/04/07 10:20:48;;;;;;;;;;;3.40;73.20;;;;;;5104043;27;87114;-40
2023/04/07 10:23:19;;;;;;;;;;;3.40;73.10;;;;;;5105512;27;87100;-41
2023/04/07 10:25:46;;;;;;;;;;;3.40;73.30;;;;;;5101974;27;89271;-41
2023/04/07 10:28:12;;;;;;;;;;;3.40;73.20;;;;;;5105236;27;87143;-41
2023/04/07 10:30:38;;;;;;;;;;;3.40;73.10;;;;;;5108388;27;88419;-41
2023/04/07 10:33:03;;;;;;;;;;;3.40;73.20;;;;;;5105292;27;87151;-40
2023/04/07 10:35:49;;;;;;;;;;;3.40;73.20;;;;;;5105378;27;88621;-40
2023/04/07 10:38:16;;;;;;;;;;;3.50;73.20;;;;;;5102518;27;90257;-40
2023/04/07 10:40:42;;;;;;;;;;;3.50;73.20;;;;;;5105332;27;87016;-40
2023/04/07 10:43:11;;;;;;;;;;;3.50;73.20;;;;;;5104985;27;88914;-40
2023/04/07 10:45:45;;;;;;;;;;;3.50;73.70;;;;;;5104900;27;89507;-40
2023/04/07 10:48:12;;;;;;;;;;;3.50;73.40;;;;;;5105305;27;87134;-40
2023/04/07 10:50:37;;;;;;;;;;;3.50;73.30;;;;;;5104861;27;88988;-41
2023/04/07 10:53:12;;;;;;;;;;;3.50;73.40;;;;;;5107829;27;89686;-40
2023/04/07 10:55:38;;;;;;;;;;;3.50;73.50;;;;;;5105714;27;87152;-40
2023/04/07 10:58:21;;;;;;;;;;;3.50;73.30;;;;;;5104571;27;89308;-41
2023/04/07 11:00:58;;;;;;;;;;;3.50;73.40;;;;;;5103151;27;87548;-40
2023/04/07 11:03:24;;;;;;;;;;;3.50;73.30;;;;;;5100625;27;88792;-40
2023/04/07 11:05:49;;;;;;;;;;;3.60;73.30;;;;;;5104586;27;89441;-40
2023/04/07 11:08:32;;;;;;;;;;;3.60;73.40;;;;;;5104566;27;87035;-40
2023/04/07 11:10:57;;;;;;;;;;;3.60;73.30;;;;;;5101424;27;89111;-40
2023/04/07 11:13:23;;;;;;;;;;;3.60;73.30;;;;;;5104048;27;88166;-41
2023/04/07 11:15:50;;;;;;;;;;;3.60;73.40;;;;;;5108286;27;87008;-41
2023/04/07 11:18:17;;;;;;;;;;;3.60;73.50;;;;;;5104136;27;89197;-40
2023/04/07 11:20:44;;;;;;;;;;;3.70;73.40;;;;;;5104848;27;86551;-40
2023/04/07 11:23:10;;;;;;;;;;;3.70;73.40;;;;;;5104432;27;88258;-40
2023/04/07 11:25:36;;;;;;;;;;;3.70;73.40;;;;;;5100007;27;89418;-41
2023/04/07 11:28:05;;;;;;;;;;;3.70;73.40;;;;;;5103772;27;88302;-41
2023/04/07 11:30:30;;;;;;;;;;;3.70;73.40;;;;;;5104967;27;88259;-41
2023/04/07 11:32:56;;;;;;;;;;;3.70;73.50;;;;;;5104208;27;88253;-41
2023/04/07 11:35:22;;;;;;;;;;;3.70;73.50;;;;;;5100661;27;87412;-41
2023/04/07 11:37:47;;;;;;;;;;;3.80;73.20;;;;;;5107021;27;87318;-41
2023/04/07 11:40:30;;;;;;;;;;;3.90;73.10;;;;;;5104206;27;87027;-40
2023/04/07 11:42:56;;;;;;;;;;;3.90;72.80;;;;;;5100423;27;89026;-40
2023/04/07 11:45:21;;;;;;;;;;;4.00;72.60;;;;;;5104574;27;89100;-40
2023/04/07 11:47:49;;;;;;;;;;;4.00;72.60;;;;;;5104296;27;87101;-41
2023/04/07 11:50:15;;;;;;;;;;;3.90;72.80;;;;;;5104030;27;88735;-41
2023/04/07 11:52:41;;;;;;;;;;;4.00;72.90;;;;;;5103107;27;88971;-41
2023/04/07 11:55:15;;;;;;;;;;;3.90;73.00;;;;;;5103903;27;87183;-41
2023/04/07 11:57:41;;;;;;;;;;;3.90;72.80;;;;;;5104093;27;88745;-41
2023/04/07 12:00:06;;;;;;;;;;;3.90;73.70;;;;;;5106367;27;89338;-41
2023/04/07 12:02:33;;;;;;;;;;;3.90;73.10;;;;;;5103720;27;88628;-41
2023/04/07 12:04:58;;;;;;;;;;;3.90;73.10;;;;;;5103597;27;89865;-41
2023/04/07 12:07:24;;;;;;;;;;;4.00;72.90;;;;;;5103468;27;87033;-41
2023/04/07 12:09:50;;;;;;;;;;;4.00;73.20;;;;;;5104352;27;88879;-41
2023/04/07 12:12:24;;;;;;;;;;;4.00;73.10;;;;;;5103452;27;88417;-41
2023/04/07 12:14:50;;;;;;;;;;;4.00;72.90;;;;;;5103212;27;87431;-41
2023/04/07 12:17:22;;;;;;;;;;;4.10;72.60;;;;;;5098942;27;88621;-41
2023/04/07 12:19:47;;;;;;;;;;;4.20;72.10;;;;;;5106154;27;89465;-41
2023/04/07 12:22:13;;;;;;;;;;;4.30;72.20;;;;;;5103553;27;88127;-41
2023/04/07 12:24:38;;;;;;;;;;;4.40;72.00;;;;;;5101815;27;91236;-40
2023/04/07 12:27:04;;;;;;;;;;;4.30;71.80;;;;;;5103685;27;86996;-41
2023/04/07 12:29:29;;;;;;;;;;;4.40;71.70;;;;;;5099977;27;87332;-41
2023/04/07 12:31:55;;;;;;;;;;;4.40;71.80;;;;;;5103227;27;89341;-41
2023/04/07 12:34:21;;;;;;;;;;;4.20;72.20;;;;;;5103937;27;86354;-41
2023/04/07 12:36:47;;;;;;;;;;;4.20;72.60;;;;;;5103211;27;88297;-41
2023/04/07 12:39:12;;;;;;;;;;;4.20;72.70;;;;;;5103031;27;89162;-41
2023/04/07 12:41:38;;;;;;;;;;;4.20;72.90;;;;;;5105893;27;88101;-41
2023/04/07 12:44:04;;;;;;;;;;;4.20;72.90;;;;;;5102828;27;89164;-41
2023/04/07 12:46:29;;;;;;;;;;;4.20;72.90;;;;;;5103290;27;87138;-41
2023/04/07 12:48:55;;;;;;;;;;;4.20;72.90;;;;;;5103447;27;88666;-41
2023/04/07 12:51:21;;;;;;;;;;;4.20;72.90;;;;;;5102833;27;89336;-41
2023/04/07 12:53:47;;;;;;;;;;;4.30;72.90;;;;;;5103386;27;87050;-41
2023/04/07 12:56:12;;;;;;;;;;;4.20;72.80;;;;;;5103242;27;88897;-41
2023/04/07 12:58:38;;;;;;;;;;;4.30;72.90;;;;;;5103232;27;88596;-41
2023/04/07 13:01:04;;;;;;;;;;;4.30;72.80;;;;;;5103470;27;87187;-40
2023/04/07 13:03:30;;;;;;;;;;;4.30;72.70;;;;;;5105398;27;87933;-40
2023/04/07 13:06:00;;;;;;;;;;;4.40;72.50;;;;;;5102475;27;88113;-40
2023/04/07 13:08:28;;;;;;;;;;;4.40;72.50;;;;;;5102696;27;89720;-41
2023/04/07 13:10:54;;;;;;;;;;;4.40;72.40;;;;;;5102794;27;89705;-41
2023/04/07 13:13:19;;;;;;;;;;;4.40;72.50;;;;;;5102614;27;87386;-41
2023/04/07 13:15:45;;;;;;;;;;;4.30;72.60;;;;;;5102756;27;88015;-41
2023/04/07 13:18:11;;;;;;;;;;;4.40;72.70;;;;;;5102499;27;88000;-41
2023/04/07 13:20:36;;;;;;;;;;;4.40;72.60;;;;;;5102537;27;87037;-41
2023/04/07 13:23:02;;;;;;;;;;;4.50;72.50;;;;;;5103232;27;87396;-41
2023/04/07 13:25:27;;;;;;;;;;;4.40;72.60;;;;;;5103105;27;91496;-41
2023/04/07 13:27:53;;;;;;;;;;;4.40;72.60;;;;;;5102410;27;88749;-41
2023/04/07 13:30:19;;;;;;;;;;;4.40;72.70;;;;;;5101837;27;88927;-41
2023/04/07 13:32:47;;;;;;;;;;;4.40;72.80;;;;;;5102787;27;87177;-41
2023/04/07 13:35:16;;;;;;;;;;;4.40;72.80;;;;;;5102551;27;87036;-41
2023/04/07 13:37:43;;;;;;;;;;;4.40;72.80;;;;;;5102214;27;89027;-41
2023/04/07 13:40:09;;;;;;;;;;;4.50;73.30;;;;;;5102367;27;87062;-41
2023/04/07 13:42:35;;;;;;;;;;;4.50;72.60;;;;;;5102096;27;88851;-41
2023/04/07 13:45:00;;;;;;;;;;;4.50;72.60;;;;;;5101990;27;89437;-41
2023/04/07 13:47:28;;;;;;;;;;;4.50;72.70;;;;;;5105633;27;87012;-41
2023/04/07 13:49:54;;;;;;;;;;;4.50;72.30;;;;;;5101843;27;88131;-41
2023/04/07 13:52:20;;;;;;;;;;;4.50;72.70;;;;;;5102282;27;87704;-41
2023/04/07 13:54:46;;;;;;;;;;;4.50;72.70;;;;;;5102057;27;88785;-41
2023/04/07 13:57:13;;;;;;;;;;;4.50;72.60;;;;;;5102091;27;89628;-40
2023/04/07 13:59:38;;;;;;;;;;;4.50;72.50;;;;;;5102467;27;87166;-41
2023/04/07 14:02:04;;;;;;;;;;;4.50;72.50;;;;;;5102186;27;88467;-41
2023/04/07 14:04:30;;;;;;;;;;;4.60;72.50;;;;;;5101785;27;89438;-41
2023/04/07 14:06:55;;;;;;;;;;;4.60;72.60;;;;;;5101910;27;87207;-41
2023/04/07 14:09:21;;;;;;;;;;;4.60;72.50;;;;;;5104824;27;87168;-41
2023/04/07 14:11:47;;;;;;;;;;;4.60;72.50;;;;;;5102590;27;86398;-41
2023/04/07 14:14:12;;;;;;;;;;;4.60;72.60;;;;;;5101501;27;88028;-41
2023/04/07 14:16:38;;;;;;;;;;;4.60;72.50;;;;;;5102026;27;88327;-41
2023/04/07 14:19:03;;;;;;;;;;;4.60;72.60;;;;;;5101841;27;88048;-41
2023/04/07 14:21:30;;;;;;;;;;;4.70;72.50;;;;;;5102019;27;87428;-41
2023/04/07 14:23:55;;;;;;;;;;;4.70;72.60;;;;;;5101627;27;89755;-41
2023/04/07 14:26:21;;;;;;;;;;;4.80;72.10;;;;;;5101724;27;87136;-41